Time;durP1;ratioP1;P1;durP2;ratioP2;P2;SDS_P1;SDS_P2;PMS_P1;PMS_P2;Temp;Humidity;BMP_temperature;BMP_pressure;BME280_temperature;BME280_humidity;BME280_pressure;Samples;Min_cycle;Max_cycle;Signal;HPM_P1;HPM_P2
2022/10/05 00:01:00;;;;;;;2.83;1.73;;;;;;;14.99;51.21;102164.31;5078987;28;20478;-63
2022/10/05 00:03:32;;;;;;;4.22;1.98;;;;;;;14.95;51.07;102158.44;5080103;28;20900;-64
2022/10/05 00:05:58;;;;;;;2.65;1.80;;;;;;;14.91;51.19;102165.94;5059901;28;20378;-64
2022/10/05 00:11:21;;;;;;;2.78;1.83;;;;;;;14.89;51.48;102172.44;5097212;27;20477;-63
2022/10/05 00:13:47;;;;;;;2.95;1.98;;;;;;;14.85;51.52;102163.09;5085844;28;20394;-62
2022/10/05 00:16:18;;;;;;;2.70;1.90;;;;;;;14.85;51.63;102168.44;5068146;28;20449;-62
2022/10/05 00:20:25;;;;;;;2.38;1.90;;;;;;;14.78;51.67;102170.91;5092478;27;20411;-63
2022/10/05 00:26:32;;;;;;;3.55;2.25;;;;;;;14.76;51.73;102180.06;5099103;27;20406;-62
2022/10/05 00:34:07;;;;;;;3.10;2.00;;;;;;;14.67;51.76;102166.69;5090852;27;20788;-63
2022/10/05 00:36:33;;;;;;;2.22;2.00;;;;;;;14.69;51.56;102164.72;5087131;28;20945;-62
2022/10/05 00:39:00;;;;;;;3.63;2.10;;;;;;;14.65;51.83;102158.00;5074416;28;20380;-63
2022/10/05 00:43:09;;;;;;;2.70;1.90;;;;;;;14.61;52.03;102148.66;5083408;27;20789;-63
2022/10/05 00:45:46;;;;;;;3.78;2.15;;;;;;;14.57;51.80;102151.78;5053275;28;20801;-64
2022/10/05 00:49:02;;;;;;;3.38;2.13;;;;;;;14.53;51.89;102148.59;5087149;27;20934;-63
2022/10/05 00:51:30;;;;;;;3.35;2.42;;;;;;;14.49;52.17;102155.25;5086972;28;20401;-64
2022/10/05 00:54:20;;;;;;;3.88;2.15;;;;;;;14.47;52.24;102159.91;5081220;28;20380;-63
2022/10/05 00:57:19;;;;;;;3.42;2.25;;;;;;;14.41;52.29;102161.41;5066896;28;20388;-63
2022/10/05 00:59:51;;;;;;;3.17;2.20;;;;;;;14.42;52.28;102162.22;5086564;28;20417;-63
2022/10/05 01:02:30;;;;;;;4.37;2.20;;;;;;;14.42;52.11;102179.09;5072430;28;20492;-63
2022/10/05 01:05:22;;;;;;;3.80;2.22;;;;;;;14.38;52.48;102172.38;5074607;28;20853;-63
2022/10/05 01:07:50;;;;;;;3.65;2.60;;;;;;;14.40;52.58;102180.22;5074242;28;20495;-63
2022/10/05 01:10:37;;;;;;;4.30;2.42;;;;;;;14.41;52.30;102184.59;5086706;28;20531;-63
2022/10/05 01:14:25;;;;;;;5.70;2.65;;;;;;;14.41;52.43;102184.59;5055119;28;20413;-63
2022/10/05 01:16:54;;;;;;;2.80;2.10;;;;;;;14.40;52.46;102185.56;5046973;28;20907;-63
2022/10/05 01:19:41;;;;;;;2.67;2.27;;;;;;;14.38;52.48;102198.22;5046704;28;20385;-64
2022/10/05 01:23:45;;;;;;;4.78;2.80;;;;;;;14.39;52.70;102207.91;5078500;27;20411;-63
2022/10/05 01:26:41;;;;;;;3.80;2.80;;;;;;;14.41;52.67;102203.25;5019127;28;20433;-64
2022/10/05 01:30:56;;;;;;;5.37;2.30;;;;;;;14.38;52.65;102196.38;5052256;28;20487;-62
2022/10/05 01:33:41;;;;;;;4.65;2.67;;;;;;;14.41;52.43;102192.59;5026759;28;20391;-63
2022/10/05 01:36:31;;;;;;;3.10;2.30;;;;;;;14.41;52.80;102203.25;5026902;28;20384;-63
2022/10/05 01:39:05;;;;;;;3.40;2.53;;;;;;;14.42;52.36;102212.91;5026674;28;21027;-64
2022/10/05 01:41:44;;;;;;;3.20;2.20;;;;;;;14.47;52.13;102213.28;5026784;28;21444;-63
2022/10/05 01:44:18;;;;;;;5.32;2.50;;;;;;;14.42;52.38;102210.25;5026558;28;20391;-63
2022/10/05 01:47:19;;;;;;;4.00;2.38;;;;;;;14.41;52.18;102211.25;5026850;28;20477;-63
2022/10/05 01:52:19;;;;;;;3.28;2.10;;;;;;;14.42;52.32;102212.91;5036801;28;20854;-62
2022/10/05 01:59:44;;;;;;;6.28;2.15;;;;;;;14.39;52.45;102222.09;5076529;27;20462;-64
2022/10/05 02:02:15;;;;;;;2.55;2.10;;;;;;;14.38;52.46;102222.25;5067069;28;20416;-63
2022/10/05 02:04:50;;;;;;;3.73;2.30;;;;;;;14.33;52.49;102233.38;5066610;28;20447;-62
2022/10/05 02:07:28;;;;;;;3.58;2.20;;;;;;;14.31;52.25;102244.22;5066735;28;20446;-64
2022/10/05 02:10:16;;;;;;;5.28;2.42;;;;;;;14.32;52.57;102247.72;5066492;28;20381;-65
2022/10/05 02:12:44;;;;;;;4.20;2.60;;;;;;;14.27;52.66;102242.00;5058023;28;20403;-63
2022/10/05 02:15:14;;;;;;;3.70;2.35;;;;;;;14.28;52.42;102265.03;5066469;28;20739;-63
2022/10/05 02:21:20;;;;;;;3.78;2.35;;;;;;;14.17;52.36;102271.47;5078311;27;20437;-62
2022/10/05 02:23:48;;;;;;;2.73;2.30;;;;;;;14.08;52.50;102261.69;5058919;28;20467;-63
2022/10/05 02:26:15;;;;;;;2.58;2.28;;;;;;;14.06;52.59;102266.34;5060700;28;20392;-62
2022/10/05 02:28:55;;;;;;;4.40;2.60;;;;;;;14.01;52.59;102260.66;5066506;28;20493;-63
2022/10/05 02:31:30;;;;;;;5.55;2.45;;;;;;;13.95;52.54;102256.78;5066443;28;20383;-63
2022/10/05 02:34:25;;;;;;;3.50;2.30;;;;;;;13.95;52.92;102264.78;5066999;28;20388;-62
2022/10/05 02:37:27;;;;;;;2.90;2.25;;;;;;;13.91;52.66;102269.56;5066013;28;20384;-64
2022/10/05 02:40:11;;;;;;;3.63;2.30;;;;;;;13.86;52.80;102258.53;5066250;28;20471;-63
2022/10/05 02:43:03;;;;;;;2.72;2.30;;;;;;;13.81;52.89;102260.84;5066213;28;20390;-62
2022/10/05 02:45:41;;;;;;;2.77;2.30;;;;;;;13.81;53.15;102273.31;5065650;28;20758;-63
2022/10/05 02:48:23;;;;;;;4.03;2.40;;;;;;;13.76;52.90;102279.13;5066386;28;20399;-65
2022/10/05 02:50:57;;;;;;;4.00;2.17;;;;;;;13.69;53.31;102284.22;5065659;28;20782;-64
2022/10/05 02:53:26;;;;;;;5.47;2.30;;;;;;;13.70;53.19;102282.38;5057205;28;20384;-63
2022/10/05 02:56:17;;;;;;;4.22;2.50;;;;;;;13.70;53.01;102285.03;5066227;28;20465;-65
2022/10/05 02:59:00;;;;;;;3.13;2.37;;;;;;;13.66;53.26;102284.50;5061070;28;20397;-63
2022/10/05 03:02:18;;;;;;;3.35;2.50;;;;;;;13.63;53.34;102289.31;5053892;28;20419;-63
2022/10/05 03:04:59;;;;;;;4.25;2.50;;;;;;;13.67;53.10;102302.19;5027026;28;20468;-63
2022/10/05 03:08:39;;;;;;;3.53;2.55;;;;;;;13.60;53.16;102289.63;5081251;27;2031453;-64
2022/10/05 03:11:22;;;;;;;4.47;2.63;;;;;;;13.62;53.33;102295.63;5127550;28;20764;-63
2022/10/05 03:14:09;;;;;;;3.92;3.05;;;;;;;13.58;53.67;102300.44;5127890;28;20916;-62
2022/10/05 03:16:53;;;;;;;4.75;2.75;;;;;;;13.55;53.63;102293.56;5127466;28;20375;-63
2022/10/05 03:19:31;;;;;;;4.55;2.65;;;;;;;13.53;53.60;102298.19;5127948;28;20436;-63
2022/10/05 03:22:06;;;;;;;3.88;2.67;;;;;;;13.53;53.57;102295.53;5127149;28;20385;-64
2022/10/05 03:26:41;;;;;;;4.57;2.97;;;;;;;13.54;53.45;102309.69;5068661;27;20431;-63
2022/10/05 03:33:29;;;;;;;5.13;2.75;;;;;;;13.46;53.61;102296.28;5076561;27;20462;-62
2022/10/05 03:36:07;;;;;;;4.35;3.05;;;;;;;13.41;53.82;102291.41;5086684;28;20471;-63
2022/10/05 03:43:27;;;;;;;12.27;3.05;;;;;;;13.38;53.57;102311.19;5070676;27;20408;-62
2022/10/05 03:46:23;;;;;;;9.32;2.83;;;;;;;13.38;53.97;102305.88;5046918;28;20979;-64
2022/10/05 03:49:01;;;;;;;8.82;2.97;;;;;;;13.38;53.96;102307.72;5032227;28;20385;-62
2022/10/05 03:53:44;;;;;;;10.05;4.40;;;;;;;13.33;53.80;102302.81;5091023;27;20916;-62
2022/10/05 03:56:18;;;;;;;16.30;4.30;;;;;;;13.34;53.85;102307.16;5086954;28;20492;-63
2022/10/05 03:58:53;;;;;;;14.33;3.90;;;;;;;13.34;53.87;102311.63;5086295;28;20930;-64
2022/10/05 04:01:44;;;;;;;6.18;2.97;;;;;;;13.32;54.06;102316.28;5082302;27;20909;-63
2022/10/05 04:04:21;;;;;;;7.32;3.70;;;;;;;13.33;54.02;102325.97;5066634;28;20396;-62
2022/10/05 04:07:35;;;;;;;10.77;4.38;;;;;;;13.32;53.96;102324.25;5049227;28;20413;-63
2022/10/05 04:10:04;;;;;;;7.17;3.10;;;;;;;13.33;54.01;102323.28;5047130;28;20439;-62
2022/10/05 04:14:37;;;;;;;6.60;3.60;;;;;;;13.33;53.81;102323.28;5095021;27;20469;-62
2022/10/05 04:17:12;;;;;;;5.57;3.40;;;;;;;13.33;54.08;102324.13;5066925;28;20411;-62
2022/10/05 04:19:37;;;;;;;4.57;3.10;;;;;;;13.35;54.02;102322.16;5066436;28;20395;-63
2022/10/05 04:22:14;;;;;;;7.73;3.10;;;;;;;13.34;53.97;102320.50;5066341;28;20376;-62
2022/10/05 04:24:55;;;;;;;5.17;2.77;;;;;;;13.35;53.82;102323.97;5066444;28;20415;-61
2022/10/05 04:27:38;;;;;;;6.25;2.75;;;;;;;13.38;53.93;102334.34;5066667;28;20920;-63
2022/10/05 04:30:11;;;;;;;5.28;2.85;;;;;;;13.39;54.01;102330.69;5066305;28;20388;-63
2022/10/05 04:32:48;;;;;;;3.65;2.65;;;;;;;13.34;53.84;102343.59;5066695;28;20469;-62
2022/10/05 04:35:39;;;;;;;3.15;2.60;;;;;;;13.37;53.70;102332.66;5066423;28;20422;-63
2022/10/05 04:38:22;;;;;;;4.10;2.72;;;;;;;13.37;53.61;102333.47;5051460;28;20388;-62
2022/10/05 04:41:12;;;;;;;5.75;2.83;;;;;;;13.49;53.50;102342.13;5054427;28;20404;-62
2022/10/05 04:43:52;;;;;;;7.50;2.92;;;;;;;13.58;53.26;102335.06;5056305;28;20387;-63
2022/10/05 04:46:42;;;;;;;5.93;3.20;;;;;;;13.69;53.30;102334.00;5065084;28;20392;-63
2022/10/05 04:49:40;;;;;;;6.13;3.35;;;;;;;13.86;53.36;102335.00;5065405;28;20471;-62
2022/10/05 04:52:29;;;;;;;8.15;3.70;;;;;;;14.02;52.80;102345.00;5055661;28;20431;-62
2022/10/05 04:54:55;;;;;;;6.73;3.40;;;;;;;14.14;52.49;102341.09;5065181;28;20388;-63
2022/10/05 04:59:05;;;;;;;5.65;3.70;;;;;;;14.38;52.12;102350.28;5045504;28;20918;-62
2022/10/05 05:01:40;;;;;;;7.87;3.80;;;;;;;14.52;51.35;102345.22;5034934;28;20405;-62
2022/10/05 05:04:56;;;;;;;8.30;3.63;;;;;;;14.79;50.89;102363.97;5077586;27;20402;-62
2022/10/05 05:08:00;;;;;;;6.03;3.67;;;;;;;14.98;50.47;102358.41;5052402;28;20460;-63
2022/10/05 05:12:44;;;;;;;8.38;4.63;;;;;;;15.24;49.93;102360.19;5051770;28;20432;-62
2022/10/05 05:15:21;;;;;;;13.98;4.85;;;;;;;15.41;49.47;102363.75;5034500;28;20436;-62
2022/10/05 05:18:16;;;;;;;11.35;6.13;;;;;;;15.57;49.08;102371.81;5045574;28;20461;-62
2022/10/05 05:21:13;;;;;;;8.38;5.00;;;;;;;15.81;48.34;102371.09;5024718;28;20931;-62
2022/10/05 05:25:52;;;;;;;6.57;3.92;;;;;;;16.04;47.79;102384.69;5069283;27;20837;-65
2022/10/05 05:28:36;;;;;;;9.35;4.07;;;;;;;16.20;47.38;102397.22;5046645;28;20416;-63
2022/10/05 05:31:07;;;;;;;7.60;3.40;;;;;;;16.38;47.00;102394.38;5046145;28;20390;-63
2022/10/05 05:33:54;;;;;;;6.20;3.00;;;;;;;16.60;46.43;102403.59;5045734;28;20393;-63
2022/10/05 05:36:47;;;;;;;4.80;2.95;;;;;;;16.91;45.92;102420.84;5045846;28;20394;-63
2022/10/05 05:39:23;;;;;;;4.00;2.70;;;;;;;17.12;45.22;102429.13;5045379;28;20394;-63
2022/10/05 05:42:15;;;;;;;5.93;2.70;;;;;;;17.34;44.85;102421.38;5045172;28;20919;-63
2022/10/05 05:45:07;;;;;;;11.95;3.03;;;;;;;17.63;44.36;102433.31;5044170;28;20409;-63
2022/10/05 05:47:36;;;;;;;4.75;2.30;;;;;;;17.88;43.87;102434.06;5045482;28;20396;-62
2022/10/05 05:50:05;;;;;;;6.13;2.90;;;;;;;18.08;43.55;102432.63;5045567;28;20499;-63
2022/10/05 05:52:37;;;;;;;4.13;2.47;;;;;;;18.23;43.21;102427.31;5045265;28;20384;-62
2022/10/05 05:55:11;;;;;;;6.40;2.42;;;;;;;18.44;42.69;102434.72;5045788;28;20773;-62
2022/10/05 05:57:41;;;;;;;9.20;2.90;;;;;;;18.59;42.56;102439.28;5076506;28;20451;-62
2022/10/05 06:00:36;;;;;;;8.27;2.80;;;;;;;18.87;41.89;102440.41;5045274;28;20488;-62
2022/10/05 06:03:15;;;;;;;6.55;2.63;;;;;;;19.19;41.35;102445.63;5045023;28;20382;-62
2022/10/05 06:05:45;;;;;;;5.72;2.47;;;;;;;19.38;40.91;102442.38;5043054;28;20767;-62
2022/10/05 06:08:52;;;;;;;9.02;2.90;;;;;;;19.70;40.31;102440.31;5033264;28;20401;-63
2022/10/05 06:11:33;;;;;;;10.07;2.78;;;;;;;20.01;39.66;102441.94;5044084;28;20416;-62
2022/10/05 06:15:40;;;;;;;4.95;2.70;;;;;;;20.29;39.01;102450.06;5091628;27;20803;-63
2022/10/05 06:18:12;;;;;;;5.22;2.45;;;;;;;20.47;38.89;102451.47;5067191;28;20395;-62
2022/10/05 06:20:59;;;;;;;5.43;2.60;;;;;;;20.68;38.73;102445.28;5054284;28;20390;-62
2022/10/05 06:23:48;;;;;;;5.78;2.55;;;;;;;20.89;37.91;102456.00;5046324;28;20381;-62
2022/10/05 06:26:13;;;;;;;4.30;2.20;;;;;;;21.35;37.41;102463.53;5059790;28;20406;-63
2022/10/05 06:29:11;;;;;;;4.22;2.20;;;;;;;21.95;35.92;102463.03;5087645;27;20458;-62
2022/10/05 06:31:42;;;;;;;5.70;3.08;;;;;;;22.21;35.74;102459.53;5065206;28;20939;-62
2022/10/05 06:34:30;;;;;;;8.63;3.05;;;;;;;22.17;35.69;102461.00;5066416;28;20749;-62
2022/10/05 06:37:03;;;;;;;5.67;2.63;;;;;;;22.11;35.81;102469.91;5065512;28;20384;-64
2022/10/05 06:39:46;;;;;;;6.10;2.50;;;;;;;21.93;36.02;102468.63;5066667;28;20475;-63
2022/10/05 06:42:14;;;;;;;5.80;2.80;;;;;;;21.82;36.35;102477.28;5065427;28;20765;-63
2022/10/05 06:45:10;;;;;;;5.03;3.10;;;;;;;21.90;36.69;102479.00;5066210;28;20379;-62
2022/10/05 06:47:51;;;;;;;3.87;2.60;;;;;;;21.91;36.54;102492.28;5061007;28;20420;-64
2022/10/05 06:50:46;;;;;;;5.95;2.70;;;;;;;21.89;36.60;102490.81;5065243;28;20384;-64
2022/10/05 06:53:30;;;;;;;10.20;3.13;;;;;;;22.00;36.62;102489.41;5050403;28;20423;-63
2022/10/05 06:56:06;;;;;;;5.22;2.47;;;;;;;22.10;36.30;102497.97;5063811;28;20376;-63
2022/10/05 06:58:44;;;;;;;7.07;3.03;;;;;;;22.19;36.18;102496.72;5065296;28;20456;-62
2022/10/05 07:01:19;;;;;;;4.68;2.40;;;;;;;22.38;35.90;102495.13;5065243;28;20388;-63
2022/10/05 07:04:20;;;;;;;7.90;2.77;;;;;;;22.40;35.91;102493.06;5064123;28;20487;-64
2022/10/05 07:07:03;;;;;;;5.70;2.60;;;;;;;22.43;35.71;102489.13;5065546;28;20407;-63
2022/10/05 07:09:49;;;;;;;4.38;2.38;;;;;;;22.41;35.75;102488.50;5052726;28;20910;-64
2022/10/05 07:12:53;;;;;;;6.22;2.40;;;;;;;22.61;35.76;102491.22;5054582;28;20376;-63
2022/10/05 07:15:56;;;;;;;3.27;2.50;;;;;;;22.68;35.52;102497.44;5041766;28;20395;-64
2022/10/05 07:19:06;;;;;;;6.05;2.50;;;;;;;22.40;35.66;102494.91;5062188;28;20442;-63
2022/10/05 07:21:51;;;;;;;7.28;3.33;;;;;;;22.48;35.56;102495.56;5056967;28;20385;-62
2022/10/05 07:24:28;;;;;;;7.65;2.70;;;;;;;22.67;35.25;102493.94;5051510;28;20390;-63
2022/10/05 07:27:16;;;;;;;7.15;2.28;;;;;;;22.90;34.53;102489.94;5059058;28;20386;-63
2022/10/05 07:30:04;;;;;;;5.25;2.38;;;;;;;22.84;34.61;102486.22;5061049;28;20404;-64
2022/10/05 07:32:53;;;;;;;4.25;2.00;;;;;;;22.51;34.88;102494.34;5055665;28;20386;-63
2022/10/05 07:38:23;;;;;;;4.93;2.63;;;;;;;22.55;35.22;102481.25;5064945;28;20438;-63
2022/10/05 07:40:57;;;;;;;4.28;3.30;;;;;;;22.55;34.95;102483.94;5049996;28;20384;-63
2022/10/05 07:43:42;;;;;;;5.22;2.55;;;;;;;22.62;35.07;102479.38;5051383;28;20376;-63
2022/10/05 07:47:57;;;;;;;7.47;2.30;;;;;;;22.81;34.85;102489.31;5084731;27;20410;-63
2022/10/05 07:50:25;;;;;;;5.90;2.30;;;;;;;23.03;34.79;102497.22;5074291;28;20490;-63
2022/10/05 07:53:22;;;;;;;6.13;2.20;;;;;;;23.21;34.23;102491.19;5084922;28;20385;-63
2022/10/05 07:55:54;;;;;;;3.47;2.10;;;;;;;23.22;33.75;102493.69;5082589;28;20436;-63
2022/10/05 07:59:09;;;;;;;5.32;2.40;;;;;;;23.16;34.11;102496.44;5068687;27;20998;-63
2022/10/05 08:01:40;;;;;;;4.13;2.10;;;;;;;23.11;33.91;102499.75;5065696;28;20395;-63
2022/10/05 08:04:13;;;;;;;3.85;2.20;;;;;;;22.86;34.03;102494.13;5065484;28;20387;-63
2022/10/05 08:07:00;;;;;;;5.40;2.10;;;;;;;22.78;34.65;102497.88;5066164;28;20376;-62
2022/10/05 08:09:41;;;;;;;4.70;2.10;;;;;;;22.64;34.58;102502.44;5055917;28;20382;-62
2022/10/05 08:12:24;;;;;;;3.40;2.20;;;;;;;22.25;34.98;102495.06;5046612;28;20389;-63
2022/10/05 08:15:02;;;;;;;2.58;2.03;;;;;;;22.06;35.45;102511.03;5059301;28;20391;-62
2022/10/05 08:17:59;;;;;;;4.05;2.08;;;;;;;22.30;35.42;102517.78;5047975;28;20416;-62
2022/10/05 08:20:44;;;;;;;5.73;2.40;;;;;;;21.96;35.50;102502.47;5026346;28;21031;-63
2022/10/05 08:23:27;;;;;;;5.60;2.30;;;;;;;22.13;35.42;102514.59;5026376;28;20498;-62
2022/10/05 08:26:54;;;;;;;4.25;2.13;;;;;;;22.30;35.02;102525.03;5074895;27;20422;-65
2022/10/05 08:29:42;;;;;;;4.72;2.35;;;;;;;22.21;35.19;102526.25;5086658;28;20540;-63
2022/10/05 08:32:21;;;;;;;3.97;2.22;;;;;;;22.15;35.21;102530.59;5086814;28;20394;-63
2022/10/05 08:35:24;;;;;;;3.53;1.85;;;;;;;22.01;35.45;102531.59;5086655;28;20382;-62
2022/10/05 08:37:51;;;;;;;4.10;1.83;;;;;;;21.82;35.67;102525.88;5086776;28;20382;-63
2022/10/05 08:40:56;;;;;;;4.75;2.03;;;;;;;22.07;35.55;102523.47;5068525;28;20383;-63
2022/10/05 08:44:56;;;;;;;2.95;1.73;;;;;;;22.44;34.54;102515.09;5093373;27;20402;-64
2022/10/05 08:48:03;;;;;;;3.42;2.20;;;;;;;22.50;34.71;102530.50;5066816;28;20909;-63
2022/10/05 08:50:40;;;;;;;2.97;1.90;;;;;;;22.49;34.51;102523.41;5080336;28;20466;-63
2022/10/05 08:53:18;;;;;;;3.20;1.87;;;;;;;22.28;34.77;102533.34;5066596;28;20391;-64
2022/10/05 08:55:49;;;;;;;3.97;1.77;;;;;;;21.97;34.86;102533.84;5085536;28;20401;-63
2022/10/05 08:58:59;;;;;;;2.47;1.90;;;;;;;21.81;34.87;102534.19;5074766;28;20387;-63
2022/10/05 09:02:02;;;;;;;4.80;1.73;;;;;;;21.91;34.84;102542.75;5066637;28;20430;-63
2022/10/05 09:05:22;;;;;;;5.47;2.08;;;;;;;22.15;35.07;102542.22;5086380;27;20412;-63
2022/10/05 09:08:12;;;;;;;2.38;1.60;;;;;;;22.19;34.71;102537.25;5054359;28;20415;-62
2022/10/05 09:10:56;;;;;;;2.15;1.73;;;;;;;22.19;34.96;102545.34;5066314;28;20774;-63
2022/10/05 09:13:21;;;;;;;2.95;1.73;;;;;;;22.13;34.88;102543.47;5066461;28;20747;-63
2022/10/05 09:16:28;;;;;;;1.90;1.57;;;;;;;22.18;35.12;102548.25;5099107;28;20399;-63
2022/10/05 09:19:25;;;;;;;2.60;1.80;;;;;;;22.33;35.12;102544.38;5066267;28;20445;-64
2022/10/05 09:22:15;;;;;;;4.13;1.80;;;;;;;22.33;34.67;102540.84;5055845;28;20384;-65
2022/10/05 09:24:52;;;;;;;3.95;2.92;;;;;;;22.04;34.81;102550.91;5052215;28;20507;-63
2022/10/05 09:27:27;;;;;;;3.30;1.80;;;;;;;21.93;34.80;102549.63;5066112;28;20388;-63
2022/10/05 09:30:04;;;;;;;2.05;1.83;;;;;;;21.99;34.72;102550.69;5066115;28;20380;-63
2022/10/05 09:32:52;;;;;;;2.45;1.80;;;;;;;21.95;34.55;102541.31;5056566;28;20389;-63
2022/10/05 09:35:39;;;;;;;4.60;1.67;;;;;;;21.72;34.85;102538.94;5064633;28;20771;-63
2022/10/05 09:38:38;;;;;;;3.15;1.77;;;;;;;21.51;35.36;102540.66;5065837;28;20792;-63
2022/10/05 09:41:12;;;;;;;2.83;1.60;;;;;;;21.62;35.00;102533.88;5056629;28;20983;-63
2022/10/05 09:43:59;;;;;;;3.42;1.40;;;;;;;21.57;34.81;102534.50;5065483;28;20416;-63
2022/10/05 09:46:33;;;;;;;2.42;1.30;;;;;;;21.54;34.81;102534.88;5056881;28;20427;-64
2022/10/05 09:49:35;;;;;;;3.03;1.90;;;;;;;21.69;34.80;102532.06;5060309;28;20390;-62
2022/10/05 09:52:22;;;;;;;5.18;1.30;;;;;;;21.85;34.86;102538.97;5062282;28;20953;-63
2022/10/05 09:54:50;;;;;;;3.83;1.55;;;;;;;21.94;34.66;102545.88;5065532;28;20472;-63
2022/10/05 09:57:21;;;;;;;3.00;1.70;;;;;;;21.68;35.47;102543.03;5065670;28;20388;-63
2022/10/05 09:59:46;;;;;;;2.75;1.50;;;;;;;21.69;35.60;102534.75;5065750;28;20377;-62
2022/10/05 10:02:46;;;;;;;3.40;1.60;;;;;;;21.66;35.75;102526.22;5065202;28;20441;-63
2022/10/05 10:05:50;;;;;;;3.42;1.40;;;;;;;21.29;35.99;102537.19;5089954;27;20414;-63
2022/10/05 10:08:39;;;;;;;2.60;1.33;;;;;;;21.12;36.40;102533.09;5066814;28;20400;-63
2022/10/05 10:11:20;;;;;;;2.10;1.40;;;;;;;20.83;36.85;102528.72;5055521;28;20873;-64
2022/10/05 10:14:12;;;;;;;2.05;1.42;;;;;;;20.77;37.17;102528.47;5066561;28;20395;-63
2022/10/05 10:16:59;;;;;;;5.23;1.37;;;;;;;20.79;37.08;102526.41;5066487;28;20384;-63
2022/10/05 10:20:10;;;;;;;2.90;1.40;;;;;;;20.79;36.88;102528.28;5066547;28;20944;-64
2022/10/05 10:24:13;;;;;;;1.92;1.20;;;;;;;20.62;37.24;102515.06;5088509;27;20425;-65
2022/10/05 10:29:36;;;;;;;2.55;1.50;;;;;;;20.31;37.99;102504.59;5093301;27;20406;-63
2022/10/05 10:32:09;;;;;;;3.97;1.40;;;;;;;20.32;37.86;102508.94;5087108;28;20429;-63
2022/10/05 10:36:57;;;;;;;2.75;1.50;;;;;;;20.38;38.20;102494.72;5100475;27;20402;-63
2022/10/05 10:39:52;;;;;;;3.58;1.40;;;;;;;20.30;38.38;102492.13;5086598;28;20784;-63
2022/10/05 10:43:42;;;;;;;3.28;1.35;;;;;;;20.26;38.34;102496.25;5039153;28;20789;-64
2022/10/05 10:46:16;;;;;;;4.90;1.70;;;;;;;20.09;38.63;102484.88;4997576;28;20977;-63
2022/10/05 10:49:05;;;;;;;4.47;1.25;;;;;;;20.16;38.30;102477.69;5023471;28;20407;-63
2022/10/05 10:52:01;;;;;;;1.95;1.30;;;;;;;20.37;38.16;102489.53;5026358;28;20379;-65
2022/10/05 10:56:28;;;;;;;2.78;1.15;;;;;;;20.24;38.37;102480.28;5094322;27;20409;-63
2022/10/05 10:58:56;;;;;;;2.17;1.15;;;;;;;20.24;37.89;102476.75;5080927;28;20404;-64
2022/10/05 11:01:34;;;;;;;2.27;1.20;;;;;;;20.18;37.79;102462.19;5079002;28;20880;-63
2022/10/05 11:04:08;;;;;;;1.90;1.10;;;;;;;20.28;37.81;102469.13;5086298;28;20379;-63
2022/10/05 11:06:45;;;;;;;2.45;1.20;;;;;;;20.44;37.38;102463.50;5086731;28;20392;-64
2022/10/05 11:09:40;;;;;;;5.00;1.35;;;;;;;20.47;37.05;102460.38;5086720;28;20876;-63
2022/10/05 11:12:24;;;;;;;3.45;1.30;;;;;;;20.53;36.78;102465.00;5086135;28;20756;-65
2022/10/05 11:15:02;;;;;;;1.77;1.20;;;;;;;20.57;36.15;102460.06;5086520;28;20899;-64
2022/10/05 11:17:57;;;;;;;2.20;0.90;;;;;;;20.54;35.97;102476.63;5086333;28;20382;-64
2022/10/05 11:20:47;;;;;;;2.13;0.93;;;;;;;20.47;35.42;102470.34;5083643;28;20418;-63
2022/10/05 11:23:47;;;;;;;2.70;1.05;;;;;;;20.55;35.25;102465.66;5080454;28;20480;-64
2022/10/05 11:26:31;;;;;;;2.60;1.00;;;;;;;20.55;35.27;102459.44;5080272;28;20381;-65
2022/10/05 11:30:16;;;;;;;1.65;0.93;;;;;;;20.63;34.77;102453.94;5049277;28;20414;-63
2022/10/05 11:33:19;;;;;;;2.00;1.00;;;;;;;20.70;34.12;102454.81;5046759;28;20547;-63
2022/10/05 11:35:44;;;;;;;2.35;1.00;;;;;;;20.77;34.31;102460.25;5028014;28;20921;-63
2022/10/05 11:38:38;;;;;;;8.43;1.97;;;;;;;20.72;34.67;102462.72;5029214;28;20391;-64
2022/10/05 11:41:13;;;;;;;1.40;1.00;;;;;;;20.84;34.16;102457.63;5027537;28;20373;-64
2022/10/05 11:43:41;;;;;;;0.88;0.80;;;;;;;20.74;33.49;102461.50;5029579;28;20405;-64
2022/10/05 11:46:15;;;;;;;1.93;1.00;;;;;;;20.72;33.52;102460.00;5023415;28;20402;-67
2022/10/05 11:48:49;;;;;;;1.67;1.02;;;;;;;20.58;33.89;102453.63;5024733;28;20414;-65
2022/10/05 11:51:39;;;;;;;1.30;1.10;;;;;;;20.49;34.17;102460.19;5024782;28;20383;-65
2022/10/05 11:54:38;;;;;;;1.23;0.90;;;;;;;20.55;34.04;102449.50;5031711;28;20398;-66
2022/10/05 11:57:17;;;;;;;2.63;1.30;;;;;;;20.56;34.01;102445.78;5022143;28;20446;-64
2022/10/05 12:00:41;;;;;;;1.38;0.90;;;;;;;20.52;34.32;102444.47;5081407;27;20406;-64
2022/10/05 12:03:08;;;;;;;1.88;1.00;;;;;;;20.47;34.02;102440.69;5077789;28;20391;-65
2022/10/05 12:05:48;;;;;;;1.38;0.82;;;;;;;20.49;34.07;102433.25;5072772;28;20424;-64
2022/10/05 12:08:39;;;;;;;1.45;1.00;;;;;;;20.47;34.14;102435.31;5073247;28;20504;-64
2022/10/05 12:11:36;;;;;;;1.23;0.93;;;;;;;20.56;34.26;102431.44;5085836;28;20370;-64
2022/10/05 12:14:13;;;;;;;2.40;1.10;;;;;;;20.69;34.50;102433.44;5080125;28;20493;-64
2022/10/05 12:16:48;;;;;;;1.77;0.90;;;;;;;20.75;34.25;102421.91;5081163;28;20379;-64
2022/10/05 12:20:51;;;;;;;1.73;0.90;;;;;;;20.65;33.76;102419.53;5047817;28;20462;-63
2022/10/05 12:23:41;;;;;;;1.20;0.90;;;;;;;20.62;33.89;102415.38;5045998;28;20405;-63
2022/10/05 12:26:23;;;;;;;3.92;1.00;;;;;;;20.63;34.11;102413.50;5033202;28;20391;-63
2022/10/05 12:29:06;;;;;;;1.90;1.00;;;;;;;20.65;34.13;102405.25;5026745;28;20402;-63
2022/10/05 12:32:02;;;;;;;3.40;1.10;;;;;;;20.62;34.24;102404.59;5041967;28;20879;-63
2022/10/05 12:34:47;;;;;;;1.30;1.10;;;;;;;20.65;34.11;102397.16;5046310;28;20386;-64
2022/10/05 12:39:27;;;;;;;1.50;1.00;;;;;;;20.52;34.01;102409.44;5059017;28;20406;-64
2022/10/05 12:42:08;;;;;;;2.03;1.10;;;;;;;20.60;34.15;102408.50;5033993;28;20405;-64
2022/10/05 12:44:41;;;;;;;1.60;0.73;;;;;;;20.65;34.13;102400.66;5035650;28;20383;-63
2022/10/05 12:47:43;;;;;;;1.60;0.70;;;;;;;20.83;33.62;102410.97;5080303;27;2077640;-64
2022/10/05 12:50:32;;;;;;;1.85;0.82;;;;;;;20.79;33.58;102407.81;5127422;28;20386;-63
2022/10/05 12:53:13;;;;;;;0.80;0.70;;;;;;;20.89;32.49;102412.88;5109276;28;21304;-63
2022/10/05 12:55:54;;;;;;;1.70;0.83;;;;;;;20.95;32.12;102406.69;5125501;28;20915;-64
2022/10/05 12:58:38;;;;;;;1.38;0.80;;;;;;;21.04;31.99;102410.06;5124341;28;20391;-65
2022/10/05 13:01:22;;;;;;;1.38;0.70;;;;;;;21.06;31.46;102399.91;5120159;28;20386;-66
2022/10/05 13:04:21;;;;;;;1.97;1.20;;;;;;;21.11;31.71;102402.84;5127051;28;20390;-63
2022/10/05 13:08:44;;;;;;;0.80;0.80;;;;;;;21.06;31.47;102399.09;5073324;28;20465;-65
2022/10/05 13:11:09;;;;;;;2.13;0.95;;;;;;;21.03;31.45;102392.25;5066136;28;20449;-64
2022/10/05 13:13:53;;;;;;;1.10;0.80;;;;;;;21.02;31.29;102404.03;5056837;28;20467;-64
2022/10/05 13:16:32;;;;;;;2.03;0.80;;;;;;;20.94;31.08;102396.09;5054614;28;20388;-63
2022/10/05 13:19:34;;;;;;;1.08;0.75;;;;;;;21.03;31.23;102384.16;5051779;28;20400;-63
2022/10/05 13:22:43;;;;;;;1.02;0.80;;;;;;;21.05;31.50;102389.31;5058481;28;20381;-63
2022/10/05 13:25:26;;;;;;;1.30;0.80;;;;;;;21.04;31.83;102398.47;5059421;28;21037;-64
2022/10/05 13:28:00;;;;;;;1.75;1.00;;;;;;;21.01;31.65;102388.88;5059967;28;20408;-65
2022/10/05 13:30:27;;;;;;;0.90;0.80;;;;;;;20.98;31.79;102376.66;5065293;28;20380;-63
2022/10/05 13:33:13;;;;;;;1.90;0.90;;;;;;;20.94;31.86;102386.16;5064197;28;20384;-65
2022/10/05 13:35:51;;;;;;;1.10;0.90;;;;;;;21.00;31.75;102379.16;5063781;28;20384;-66
2022/10/05 13:38:24;;;;;;;2.83;0.90;;;;;;;21.06;31.56;102386.44;5063983;28;20380;-64
2022/10/05 13:40:56;;;;;;;2.50;0.90;;;;;;;21.12;31.42;102377.56;5052725;28;20383;-64
2022/10/05 13:43:55;;;;;;;1.50;0.90;;;;;;;21.22;31.37;102381.75;5063950;28;20422;-64
2022/10/05 13:46:42;;;;;;;3.92;0.88;;;;;;;21.20;31.60;102379.25;5057526;28;20417;-63
2022/10/05 13:49:28;;;;;;;2.00;0.70;;;;;;;21.15;31.41;102368.22;5065032;28;20986;-64
2022/10/05 13:52:06;;;;;;;2.13;0.70;;;;;;;21.15;31.33;102371.75;5063919;28;20385;-64